PWSweather.com
Personal Weather Stations
Station Observations
RRFWEATHER
Rail Road Flat, Rail Road Flat, CA 95248

Rail Road FlatRail Road Flat, CA 95248

Lat: 38.306238, Lon: -120.514548

Elevation: 2808

Station Type: Oregon Scientific WMR-968

http://weather.railroadflat.org

Latest ConditionsUpdated 12:15:26 PM GMT Thursday, Jun 29, 2017
Currently Today's Max Today's Min Today's Average
Temperature 65.1°F18.4°C 83.8°F28.8°C 63.3°F17.4°C 69.9°F21.1°C
Dew Point 49.0°F9.4°C 55.4°F13.0°C 40.2°F4.6°C 50.2°F10.1°C
Winds 2.2 mph NW3.5 kmh NW 4.5 mph SW7.2 kmh SW - 0.9 mph 1.4 kmh
Wind Gusts 2.2 mph3.5 kmh 5.8 mph9.3 kmh - -
Humidity 56% 72% 22% 52%
Pressure 30.88 in1045.7 mb 30.88 in1045.7 mb 30.85 in1044.7 mb -
Hour Temp Dew Point Humidity Winds Wind Gusts Pressure Precip Precip Rate Daily Precip Total
12:15 PM 65.1°F18.4°C 49.0°F9.4°C 56% 2.2 mph NW3.5 kmh NW 2.2 mph3.5 kmh 30.88 in1045.7 mb 0.00 in0.0 mm 0.00 in0.0 mm 0.00 in0.0 mm
12:10 PM 65.1°F18.4°C 49.0°F9.4°C 56% 2.7 mph NW4.3 kmh NW 2.7 mph4.3 kmh 30.88 in1045.7 mb 0.00 in0.0 mm 0.00 in0.0 mm 0.00 in0.0 mm
12:05 PM 65.1°F18.4°C 49.0°F9.4°C 56% Calm Calm 2.2 mph3.5 kmh 30.88 in1045.7 mb 0.00 in0.0 mm 0.00 in0.0 mm 0.00 in0.0 mm
12:01 PM 65.3°F18.5°C 49.2°F9.6°C 56% 2.7 mph NW4.3 kmh NW 3.1 mph5.0 kmh 30.88 in1045.7 mb 0.00 in0.0 mm 0.00 in0.0 mm 0.00 in0.0 mm
11:55 AM 65.3°F18.5°C 49.2°F9.6°C 56% 3.1 mph NW5.0 kmh NW 3.1 mph5.0 kmh 30.88 in1045.7 mb 0.00 in0.0 mm 0.00 in0.0 mm 0.00 in0.0 mm
11:50 AM 65.5°F18.6°C 49.4°F9.7°C 56% 2.7 mph NW4.3 kmh NW 2.7 mph4.3 kmh 30.88 in1045.7 mb 0.00 in0.0 mm 0.00 in0.0 mm 0.00 in0.0 mm
11:45 AM 65.6°F18.7°C 48.6°F9.2°C 54% 3.6 mph NW5.8 kmh NW 3.6 mph5.8 kmh 30.88 in1045.7 mb 0.00 in0.0 mm 0.00 in0.0 mm 0.00 in0.0 mm
11:40 AM 65.8°F18.8°C 48.7°F9.3°C 54% Calm Calm -- 30.88 in1045.7 mb 0.00 in0.0 mm 0.00 in0.0 mm 0.00 in0.0 mm
11:35 AM 66.0°F18.9°C 48.9°F9.4°C 54% 2.7 mph NW4.3 kmh NW 2.7 mph4.3 kmh 30.88 in1045.7 mb 0.00 in0.0 mm 0.00 in0.0 mm 0.00 in0.0 mm
11:30 AM 65.8°F18.8°C 48.7°F9.3°C 54% 2.7 mph WNW4.3 kmh WNW 2.7 mph4.3 kmh 30.88 in1045.7 mb 0.00 in0.0 mm 0.00 in0.0 mm 0.00 in0.0 mm
11:25 AM 65.6°F18.7°C 49.5°F9.7°C 56% 2.7 mph NW4.3 kmh NW 2.7 mph4.3 kmh 30.88 in1045.7 mb 0.00 in0.0 mm 0.00 in0.0 mm 0.00 in0.0 mm
11:20 AM 65.5°F18.6°C 49.4°F9.7°C 56% 2.7 mph NW4.3 kmh NW 2.7 mph4.3 kmh 30.88 in1045.7 mb 0.00 in0.0 mm 0.00 in0.0 mm 0.00 in0.0 mm
11:15 AM 65.5°F18.6°C 49.4°F9.7°C 56% 3.1 mph NW5.0 kmh NW 3.1 mph5.0 kmh 30.88 in1045.7 mb 0.00 in0.0 mm 0.00 in0.0 mm 0.00 in0.0 mm
11:10 AM 65.5°F18.6°C 49.4°F9.7°C 56% Calm Calm -- 30.88 in1045.7 mb 0.00 in0.0 mm 0.00 in0.0 mm 0.00 in0.0 mm
11:05 AM 65.5°F18.6°C 49.4°F9.7°C 56% 2.7 mph NW4.3 kmh NW 2.7 mph4.3 kmh 30.88 in1045.7 mb 0.00 in0.0 mm 0.00 in0.0 mm 0.00 in0.0 mm
11:00 AM 65.5°F18.6°C 49.4°F9.7°C 56% 2.7 mph NW4.3 kmh NW 2.7 mph4.3 kmh 30.88 in1045.7 mb 0.00 in0.0 mm 0.00 in0.0 mm 0.00 in0.0 mm
10:55 AM 65.5°F18.6°C 49.4°F9.7°C 56% Calm Calm -- 30.88 in1045.7 mb 0.00 in0.0 mm 0.00 in0.0 mm 0.00 in0.0 mm
10:50 AM 65.6°F18.7°C 49.5°F9.7°C 56% Calm Calm -- 30.88 in1045.7 mb 0.00 in0.0 mm 0.00 in0.0 mm 0.00 in0.0 mm
10:45 AM 65.8°F18.8°C 49.7°F9.8°C 56% Calm Calm -- 30.88 in1045.7 mb 0.00 in0.0 mm 0.00 in0.0 mm 0.00 in0.0 mm
10:40 AM 65.8°F18.8°C 49.7°F9.8°C 56% Calm Calm -- 30.88 in1045.7 mb 0.00 in0.0 mm 0.00 in0.0 mm 0.00 in0.0 mm
10:35 AM 66.0°F18.9°C 48.9°F9.4°C 54% Calm Calm -- 30.85 in1044.7 mb 0.00 in0.0 mm 0.00 in0.0 mm 0.00 in0.0 mm
10:30 AM 66.0°F18.9°C 48.9°F9.4°C 54% Calm Calm -- 30.85 in1044.7 mb 0.00 in0.0 mm 0.00 in0.0 mm 0.00 in0.0 mm
10:25 AM 66.2°F19.0°C 49.1°F9.5°C 54% Calm Calm -- 30.85 in1044.7 mb 0.00 in0.0 mm 0.00 in0.0 mm 0.00 in0.0 mm
10:20 AM 66.2°F19.0°C 50.0°F10.0°C 56% Calm Calm -- 30.88 in1045.7 mb 0.00 in0.0 mm 0.00 in0.0 mm 0.00 in0.0 mm
10:15 AM 66.2°F19.0°C 49.1°F9.5°C 54% Calm Calm -- 30.88 in1045.7 mb 0.00 in0.0 mm 0.00 in0.0 mm 0.00 in0.0 mm
10:10 AM 66.2°F19.0°C 49.1°F9.5°C 54% Calm Calm -- 30.88 in1045.7 mb 0.00 in0.0 mm 0.00 in0.0 mm 0.00 in0.0 mm
10:05 AM 66.0°F18.9°C 49.9°F9.9°C 56% Calm Calm -- 30.85 in1044.7 mb 0.00 in0.0 mm 0.00 in0.0 mm 0.00 in0.0 mm
10:00 AM 66.0°F18.9°C 49.9°F9.9°C 56% Calm Calm -- 30.85 in1044.7 mb 0.00 in0.0 mm 0.00 in0.0 mm 0.00 in0.0 mm
09:55 AM 66.0°F18.9°C 49.9°F9.9°C 56% Calm Calm -- 30.85 in1044.7 mb 0.00 in0.0 mm 0.00 in0.0 mm 0.00 in0.0 mm
09:50 AM 65.8°F18.8°C 50.7°F10.4°C 58% Calm Calm -- 30.85 in1044.7 mb 0.00 in0.0 mm 0.00 in0.0 mm 0.00 in0.0 mm
09:45 AM 65.5°F18.6°C 50.3°F10.2°C 58% Calm Calm -- 30.85 in1044.7 mb 0.00 in0.0 mm 0.00 in0.0 mm 0.00 in0.0 mm
09:40 AM 65.3°F18.5°C 50.1°F10.1°C 58% Calm Calm 2.2 mph3.5 kmh 30.85 in1044.7 mb 0.00 in0.0 mm 0.00 in0.0 mm 0.00 in0.0 mm
09:35 AM 65.1°F18.4°C 50.0°F10.0°C 58% 3.1 mph NW5.0 kmh NW 3.1 mph5.0 kmh 30.88 in1045.7 mb 0.00 in0.0 mm 0.00 in0.0 mm 0.00 in0.0 mm
09:30 AM 65.1°F18.4°C 50.0°F10.0°C 58% 2.7 mph NW4.3 kmh NW 2.7 mph4.3 kmh 30.88 in1045.7 mb 0.00 in0.0 mm 0.00 in0.0 mm 0.00 in0.0 mm
09:25 AM 65.3°F18.5°C 50.1°F10.1°C 58% 2.7 mph NW4.3 kmh NW 2.7 mph4.3 kmh 30.88 in1045.7 mb 0.00 in0.0 mm 0.00 in0.0 mm 0.00 in0.0 mm
09:20 AM 65.5°F18.6°C 50.3°F10.2°C 58% 2.7 mph NW4.3 kmh NW 3.1 mph5.0 kmh 30.85 in1044.7 mb 0.00 in0.0 mm 0.00 in0.0 mm 0.00 in0.0 mm
09:15 AM 65.6°F18.7°C 50.5°F10.3°C 58% Calm Calm -- 30.85 in1044.7 mb 0.00 in0.0 mm 0.00 in0.0 mm 0.00 in0.0 mm
09:10 AM 65.8°F18.8°C 51.6°F10.9°C 60% Calm Calm -- 30.85 in1044.7 mb 0.00 in0.0 mm 0.00 in0.0 mm 0.00 in0.0 mm
09:05 AM 66.0°F18.9°C 50.8°F10.4°C 58% Calm Calm -- 30.88 in1045.7 mb 0.00 in0.0 mm 0.00 in0.0 mm 0.00 in0.0 mm
09:00 AM 66.0°F18.9°C 49.9°F9.9°C 56% Calm Calm -- 30.88 in1045.7 mb 0.00 in0.0 mm 0.00 in0.0 mm 0.00 in0.0 mm
08:55 AM 66.0°F18.9°C 49.9°F9.9°C 56% Calm Calm -- 30.88 in1045.7 mb 0.00 in0.0 mm 0.00 in0.0 mm 0.00 in0.0 mm
08:51 AM 66.0°F18.9°C 49.9°F9.9°C 56% Calm Calm -- 30.88 in1045.7 mb 0.00 in0.0 mm 0.00 in0.0 mm 0.00 in0.0 mm
08:45 AM 65.8°F18.8°C 51.6°F10.9°C 60% Calm Calm -- 30.88 in1045.7 mb 0.00 in0.0 mm 0.00 in0.0 mm 0.00 in0.0 mm
08:40 AM 65.6°F18.7°C 51.4°F10.8°C 60% Calm Calm -- 30.88 in1045.7 mb 0.00 in0.0 mm 0.00 in0.0 mm 0.00 in0.0 mm
08:35 AM 65.6°F18.7°C 53.2°F11.8°C 64% Calm Calm -- 30.85 in1044.7 mb 0.00 in0.0 mm 0.00 in0.0 mm 0.00 in0.0 mm
08:30 AM 65.5°F18.6°C 53.0°F11.7°C 64% Calm Calm -- 30.85 in1044.7 mb 0.00 in0.0 mm 0.00 in0.0 mm 0.00 in0.0 mm
08:25 AM 65.1°F18.4°C 53.5°F11.9°C 66% Calm Calm -- 30.85 in1044.7 mb 0.00 in0.0 mm 0.00 in0.0 mm 0.00 in0.0 mm
08:20 AM 64.9°F18.3°C 52.5°F11.4°C 64% Calm Calm -- 30.88 in1045.7 mb 0.00 in0.0 mm 0.00 in0.0 mm 0.00 in0.0 mm
08:15 AM 64.7°F18.2°C 52.3°F11.3°C 64% Calm Calm -- 30.88 in1045.7 mb 0.00 in0.0 mm 0.00 in0.0 mm 0.00 in0.0 mm
08:10 AM 64.7°F18.2°C 52.3°F11.3°C 64% Calm Calm -- 30.88 in1045.7 mb 0.00 in0.0 mm 0.00 in0.0 mm 0.00 in0.0 mm
08:05 AM 64.6°F18.1°C 53.0°F11.7°C 66% Calm Calm -- 30.88 in1045.7 mb 0.00 in0.0 mm 0.00 in0.0 mm 0.00 in0.0 mm
08:00 AM 64.7°F18.2°C 53.1°F11.7°C 66% Calm Calm -- 30.88 in1045.7 mb 0.00 in0.0 mm 0.00 in0.0 mm 0.00 in0.0 mm
07:55 AM 64.9°F18.3°C 53.3°F11.8°C 66% Calm Calm -- 30.88 in1045.7 mb 0.00 in0.0 mm 0.00 in0.0 mm 0.00 in0.0 mm
07:50 AM 65.1°F18.4°C 52.6°F11.4°C 64% Calm Calm -- 30.88 in1045.7 mb 0.00 in0.0 mm 0.00 in0.0 mm 0.00 in0.0 mm
07:45 AM 65.3°F18.5°C 52.8°F11.6°C 64% 2.7 mph NW4.3 kmh NW 2.7 mph4.3 kmh 30.88 in1045.7 mb 0.00 in0.0 mm 0.00 in0.0 mm 0.00 in0.0 mm
07:40 AM 65.1°F18.4°C 53.5°F11.9°C 66% 3.1 mph WNW5.0 kmh WNW 3.1 mph5.0 kmh 30.88 in1045.7 mb 0.00 in0.0 mm 0.00 in0.0 mm 0.00 in0.0 mm
07:35 AM 64.9°F18.3°C 53.3°F11.8°C 66% 3.1 mph NW5.0 kmh NW 3.1 mph5.0 kmh 30.88 in1045.7 mb 0.00 in0.0 mm 0.00 in0.0 mm 0.00 in0.0 mm
07:30 AM 64.6°F18.1°C 53.0°F11.7°C 66% 3.6 mph NW5.8 kmh NW 3.6 mph5.8 kmh 30.88 in1045.7 mb 0.00 in0.0 mm 0.00 in0.0 mm 0.00 in0.0 mm
07:25 AM 64.6°F18.1°C 53.0°F11.7°C 66% 3.6 mph NW5.8 kmh NW 3.6 mph5.8 kmh 30.88 in1045.7 mb 0.00 in0.0 mm 0.00 in0.0 mm 0.00 in0.0 mm
07:20 AM 64.4°F18.0°C 52.8°F11.6°C 66% 3.6 mph WNW5.8 kmh WNW 3.6 mph5.8 kmh 30.88 in1045.7 mb 0.00 in0.0 mm 0.00 in0.0 mm 0.00 in0.0 mm
07:15 AM 64.4°F18.0°C 53.6°F12.0°C 68% 3.1 mph WNW5.0 kmh WNW 3.1 mph5.0 kmh 30.88 in1045.7 mb 0.00 in0.0 mm 0.00 in0.0 mm 0.00 in0.0 mm
07:10 AM 64.4°F18.0°C 53.6°F12.0°C 68% 2.7 mph WNW4.3 kmh WNW 2.7 mph4.3 kmh 30.88 in1045.7 mb 0.00 in0.0 mm 0.00 in0.0 mm 0.00 in0.0 mm
07:05 AM 64.4°F18.0°C 53.6°F12.0°C 68% Calm Calm 2.2 mph3.5 kmh 30.88 in1045.7 mb 0.00 in0.0 mm 0.00 in0.0 mm 0.00 in0.0 mm
07:00 AM 64.2°F17.9°C 53.4°F11.9°C 68% 2.2 mph WNW3.5 kmh WNW 2.2 mph3.5 kmh 30.88 in1045.7 mb 0.00 in0.0 mm 0.00 in0.0 mm 0.00 in0.0 mm
06:55 AM 63.8°F17.7°C 53.9°F12.2°C 70% 2.7 mph WNW4.3 kmh WNW 3.6 mph5.8 kmh 30.88 in1045.7 mb 0.00 in0.0 mm 0.00 in0.0 mm 0.00 in0.0 mm
06:50 AM 63.5°F17.5°C 53.5°F11.9°C 70% 3.6 mph WNW5.8 kmh WNW 3.6 mph5.8 kmh 30.88 in1045.7 mb 0.00 in0.0 mm 0.00 in0.0 mm 0.00 in0.0 mm
06:45 AM 63.5°F17.5°C 54.3°F12.4°C 72% Calm Calm -- 30.88 in1045.7 mb 0.00 in0.0 mm 0.00 in0.0 mm 0.00 in0.0 mm
06:40 AM 63.3°F17.4°C 54.1°F12.3°C 72% Calm Calm 2.2 mph3.5 kmh 30.88 in1045.7 mb 0.00 in0.0 mm 0.00 in0.0 mm 0.00 in0.0 mm
06:35 AM 63.3°F17.4°C 54.1°F12.3°C 72% 3.1 mph WNW5.0 kmh WNW 3.1 mph5.0 kmh 30.88 in1045.7 mb 0.00 in0.0 mm 0.00 in0.0 mm 0.00 in0.0 mm
06:30 AM 63.5°F17.5°C 54.3°F12.4°C 72% 2.7 mph WNW4.3 kmh WNW 2.7 mph4.3 kmh 30.88 in1045.7 mb 0.00 in0.0 mm 0.00 in0.0 mm 0.00 in0.0 mm
06:25 AM 63.7°F17.6°C 54.5°F12.5°C 72% 2.7 mph WNW4.3 kmh WNW 3.1 mph5.0 kmh 30.88 in1045.7 mb 0.00 in0.0 mm 0.00 in0.0 mm 0.00 in0.0 mm
06:20 AM 64.0°F17.8°C 54.8°F12.7°C 72% 3.1 mph WNW5.0 kmh WNW 3.6 mph5.8 kmh 30.88 in1045.7 mb 0.00 in0.0 mm 0.00 in0.0 mm 0.00 in0.0 mm
06:15 AM 64.4°F18.0°C 54.4°F12.4°C 70% 2.7 mph WNW4.3 kmh WNW 3.1 mph5.0 kmh 30.88 in1045.7 mb 0.00 in0.0 mm 0.00 in0.0 mm 0.00 in0.0 mm
06:10 AM 64.6°F18.1°C 54.6°F12.6°C 70% 2.7 mph WNW4.3 kmh WNW 3.1 mph5.0 kmh 30.88 in1045.7 mb 0.00 in0.0 mm 0.00 in0.0 mm 0.00 in0.0 mm
06:05 AM 64.7°F18.2°C 54.7°F12.6°C 70% Calm Calm -- 30.88 in1045.7 mb 0.00 in0.0 mm 0.00 in0.0 mm 0.00 in0.0 mm
06:00 AM 65.3°F18.5°C 54.5°F12.5°C 68% Calm Calm -- 30.88 in1045.7 mb 0.00 in0.0 mm 0.00 in0.0 mm 0.00 in0.0 mm
05:55 AM 65.6°F18.7°C 54.8°F12.7°C 68% Calm Calm -- 30.88 in1045.7 mb 0.00 in0.0 mm 0.00 in0.0 mm 0.00 in0.0 mm
05:50 AM 65.8°F18.8°C 55.0°F12.8°C 68% Calm Calm -- 30.88 in1045.7 mb 0.00 in0.0 mm 0.00 in0.0 mm 0.00 in0.0 mm
05:45 AM 65.6°F18.7°C 54.8°F12.7°C 68% Calm Calm -- 30.88 in1045.7 mb 0.00 in0.0 mm 0.00 in0.0 mm 0.00 in0.0 mm
05:40 AM 65.8°F18.8°C 55.0°F12.8°C 68% Calm Calm -- 30.88 in1045.7 mb 0.00 in0.0 mm 0.00 in0.0 mm 0.00 in0.0 mm
05:35 AM 66.0°F18.9°C 54.3°F12.4°C 66% Calm Calm -- 30.88 in1045.7 mb 0.00 in0.0 mm 0.00 in0.0 mm 0.00 in0.0 mm
05:30 AM 66.2°F19.0°C 54.5°F12.5°C 66% Calm Calm -- 30.88 in1045.7 mb 0.00 in0.0 mm 0.00 in0.0 mm 0.00 in0.0 mm
05:25 AM 66.4°F19.1°C 54.7°F12.6°C 66% Calm Calm -- 30.88 in1045.7 mb 0.00 in0.0 mm 0.00 in0.0 mm 0.00 in0.0 mm
05:20 AM 66.5°F19.2°C 54.8°F12.7°C 66% Calm Calm -- 30.88 in1045.7 mb 0.00 in0.0 mm 0.00 in0.0 mm 0.00 in0.0 mm
05:15 AM 66.7°F19.3°C 55.0°F12.8°C 66% Calm Calm -- 30.88 in1045.7 mb 0.00 in0.0 mm 0.00 in0.0 mm 0.00 in0.0 mm
05:10 AM 66.9°F19.4°C 55.2°F12.9°C 66% Calm Calm -- 30.88 in1045.7 mb 0.00 in0.0 mm 0.00 in0.0 mm 0.00 in0.0 mm
05:05 AM 67.1°F19.5°C 55.4°F13.0°C 66% Calm Calm -- 30.88 in1045.7 mb 0.00 in0.0 mm 0.00 in0.0 mm 0.00 in0.0 mm
05:00 AM 67.3°F19.6°C 54.7°F12.6°C 64% Calm Calm -- 30.88 in1045.7 mb 0.00 in0.0 mm 0.00 in0.0 mm 0.00 in0.0 mm
04:55 AM 67.4°F19.7°C 54.9°F12.7°C 64% Calm Calm -- 30.88 in1045.7 mb 0.00 in0.0 mm 0.00 in0.0 mm 0.00 in0.0 mm
04:50 AM 67.6°F19.8°C 55.0°F12.8°C 64% Calm Calm -- 30.88 in1045.7 mb 0.00 in0.0 mm 0.00 in0.0 mm 0.00 in0.0 mm
04:45 AM 68.0°F20.0°C 53.6°F12.0°C 60% Calm Calm -- 30.88 in1045.7 mb 0.00 in0.0 mm 0.00 in0.0 mm 0.00 in0.0 mm
04:40 AM 68.2°F20.1°C 53.8°F12.1°C 60% Calm Calm -- 30.88 in1045.7 mb 0.00 in0.0 mm 0.00 in0.0 mm 0.00 in0.0 mm
04:35 AM 68.3°F20.2°C 53.0°F11.7°C 58% Calm Calm -- 30.88 in1045.7 mb 0.00 in0.0 mm 0.00 in0.0 mm 0.00 in0.0 mm
04:30 AM 68.7°F20.4°C 52.4°F11.3°C 56% Calm Calm -- 30.88 in1045.7 mb 0.00 in0.0 mm 0.00 in0.0 mm 0.00 in0.0 mm
04:25 AM 69.1°F20.6°C 52.7°F11.5°C 56% Calm Calm -- 30.88 in1045.7 mb 0.00 in0.0 mm 0.00 in0.0 mm 0.00 in0.0 mm
04:20 AM 69.4°F20.8°C 52.1°F11.2°C 54% Calm Calm -- 30.88 in1045.7 mb 0.00 in0.0 mm 0.00 in0.0 mm 0.00 in0.0 mm
04:15 AM 69.6°F20.9°C 52.2°F11.2°C 54% Calm Calm -- 30.88 in1045.7 mb 0.00 in0.0 mm 0.00 in0.0 mm 0.00 in0.0 mm
04:10 AM 69.8°F21.0°C 52.4°F11.3°C 54% Calm Calm -- 30.88 in1045.7 mb 0.00 in0.0 mm 0.00 in0.0 mm 0.00 in0.0 mm
04:05 AM 70.0°F21.1°C 52.6°F11.4°C 54% Calm Calm -- 30.88 in1045.7 mb 0.00 in0.0 mm 0.00 in0.0 mm 0.00 in0.0 mm
04:00 AM 70.1°F21.2°C 52.7°F11.5°C 54% Calm Calm -- 30.88 in1045.7 mb 0.00 in0.0 mm 0.00 in0.0 mm 0.00 in0.0 mm
03:55 AM 70.5°F21.4°C 52.1°F11.2°C 52% Calm Calm -- 30.88 in1045.7 mb 0.00 in0.0 mm 0.00 in0.0 mm 0.00 in0.0 mm
03:50 AM 71.0°F21.7°C 52.6°F11.4°C 52% Calm Calm -- 30.88 in1045.7 mb 0.00 in0.0 mm 0.00 in0.0 mm 0.00 in0.0 mm
03:45 AM 71.2°F21.8°C 51.7°F10.9°C 50% Calm Calm -- 30.88 in1045.7 mb 0.00 in0.0 mm 0.00 in0.0 mm 0.00 in0.0 mm
03:40 AM 71.6°F22.0°C 50.9°F10.5°C 48% Calm Calm -- 30.88 in1045.7 mb 0.00 in0.0 mm 0.00 in0.0 mm 0.00 in0.0 mm
03:35 AM 71.9°F22.2°C 50.1°F10.1°C 46% Calm Calm -- 30.88 in1045.7 mb 0.00 in0.0 mm 0.00 in0.0 mm 0.00 in0.0 mm
03:30 AM 72.3°F22.4°C 50.4°F10.2°C 46% Calm Calm -- 30.88 in1045.7 mb 0.00 in0.0 mm 0.00 in0.0 mm 0.00 in0.0 mm
03:25 AM 72.8°F22.7°C 50.9°F10.5°C 46% Calm Calm -- 30.88 in1045.7 mb 0.00 in0.0 mm 0.00 in0.0 mm 0.00 in0.0 mm
03:20 AM 73.2°F22.9°C 50.0°F10.0°C 44% Calm Calm -- 30.85 in1044.7 mb 0.00 in0.0 mm 0.00 in0.0 mm 0.00 in0.0 mm
03:15 AM 73.7°F23.2°C 50.5°F10.3°C 44% Calm Calm -- 30.85 in1044.7 mb 0.00 in0.0 mm 0.00 in0.0 mm 0.00 in0.0 mm
03:10 AM 74.1°F23.4°C 49.6°F9.8°C 42% Calm Calm -- 30.85 in1044.7 mb 0.00 in0.0 mm 0.00 in0.0 mm 0.00 in0.0 mm
03:05 AM 74.5°F23.6°C 49.9°F9.9°C 42% Calm Calm -- 30.88 in1045.7 mb 0.00 in0.0 mm 0.00 in0.0 mm 0.00 in0.0 mm
03:00 AM 75.0°F23.9°C 49.1°F9.5°C 40% Calm Calm -- 30.88 in1045.7 mb 0.00 in0.0 mm 0.00 in0.0 mm 0.00 in0.0 mm
02:55 AM 75.7°F24.3°C 49.7°F9.8°C 40% Calm Calm -- 30.88 in1045.7 mb 0.00 in0.0 mm 0.00 in0.0 mm 0.00 in0.0 mm
02:50 AM 76.3°F24.6°C 50.2°F10.1°C 40% Calm Calm -- 30.88 in1045.7 mb 0.00 in0.0 mm 0.00 in0.0 mm 0.00 in0.0 mm
02:45 AM 76.8°F24.9°C 50.7°F10.4°C 40% Calm Calm -- 30.88 in1045.7 mb 0.00 in0.0 mm 0.00 in0.0 mm 0.00 in0.0 mm
02:40 AM 77.2°F25.1°C 46.7°F8.2°C 34% Calm Calm -- 30.88 in1045.7 mb 0.00 in0.0 mm 0.00 in0.0 mm 0.00 in0.0 mm
02:35 AM 77.3°F25.2°C 46.8°F8.2°C 34% Calm Calm -- 30.85 in1044.7 mb 0.00 in0.0 mm 0.00 in0.0 mm 0.00 in0.0 mm
02:31 AM 77.5°F25.3°C 47.0°F8.3°C 34% Calm Calm -- 30.85 in1044.7 mb 0.00 in0.0 mm 0.00 in0.0 mm 0.00 in0.0 mm
02:25 AM 77.7°F25.4°C 47.1°F8.4°C 34% Calm Calm -- 30.85 in1044.7 mb 0.00 in0.0 mm 0.00 in0.0 mm 0.00 in0.0 mm
02:20 AM 77.9°F25.5°C 47.3°F8.5°C 34% Calm Calm -- 30.85 in1044.7 mb 0.00 in0.0 mm 0.00 in0.0 mm 0.00 in0.0 mm
02:15 AM 78.2°F25.7°C 47.6°F8.7°C 34% Calm Calm -- 30.85 in1044.7 mb 0.00 in0.0 mm 0.00 in0.0 mm 0.00 in0.0 mm
02:10 AM 78.4°F25.8°C 47.8°F8.8°C 34% Calm Calm -- 30.85 in1044.7 mb 0.00 in0.0 mm 0.00 in0.0 mm 0.00 in0.0 mm
02:05 AM 78.8°F26.0°C 48.1°F8.9°C 34% Calm Calm -- 30.85 in1044.7 mb 0.00 in0.0 mm 0.00 in0.0 mm 0.00 in0.0 mm
02:00 AM 79.1°F26.2°C 48.4°F9.1°C 34% 3.6 mph WNW5.8 kmh WNW 3.6 mph5.8 kmh 30.85 in1044.7 mb 0.00 in0.0 mm 0.00 in0.0 mm 0.00 in0.0 mm
01:55 AM 79.5°F26.4°C 43.6°F6.4°C 28% Calm Calm -- 30.85 in1044.7 mb 0.00 in0.0 mm 0.00 in0.0 mm 0.00 in0.0 mm
01:50 AM 79.9°F26.6°C 43.9°F6.6°C 28% Calm Calm -- 30.85 in1044.7 mb 0.00 in0.0 mm 0.00 in0.0 mm 0.00 in0.0 mm
01:45 AM 80.0°F26.7°C 44.0°F6.7°C 28% Calm Calm -- 30.85 in1044.7 mb 0.00 in0.0 mm 0.00 in0.0 mm 0.00 in0.0 mm
01:40 AM 80.4°F26.9°C 44.3°F6.8°C 28% Calm Calm -- 30.85 in1044.7 mb 0.00 in0.0 mm 0.00 in0.0 mm 0.00 in0.0 mm
01:35 AM 80.6°F27.0°C 44.5°F6.9°C 28% 3.6 mph WNW5.8 kmh WNW 3.6 mph5.8 kmh 30.85 in1044.7 mb 0.00 in0.0 mm 0.00 in0.0 mm 0.00 in0.0 mm
01:30 AM 80.8°F27.1°C 44.7°F7.1°C 28% Calm Calm -- 30.85 in1044.7 mb 0.00 in0.0 mm 0.00 in0.0 mm 0.00 in0.0 mm
01:25 AM 80.8°F27.1°C 44.7°F7.1°C 28% Calm Calm 5.4 mph8.7 kmh 30.85 in1044.7 mb 0.00 in0.0 mm 0.00 in0.0 mm 0.00 in0.0 mm
01:20 AM 81.1°F27.3°C 45.0°F7.2°C 28% 2.2 mph WSW3.5 kmh WSW 3.6 mph5.8 kmh 30.85 in1044.7 mb 0.00 in0.0 mm 0.00 in0.0 mm 0.00 in0.0 mm
01:15 AM 81.7°F27.6°C 45.4°F7.4°C 28% 2.2 mph WSW3.5 kmh WSW 3.1 mph5.0 kmh 30.85 in1044.7 mb 0.00 in0.0 mm 0.00 in0.0 mm 0.00 in0.0 mm
01:10 AM 81.8°F27.7°C 45.6°F7.6°C 28% Calm Calm 5.4 mph8.7 kmh 30.85 in1044.7 mb 0.00 in0.0 mm 0.00 in0.0 mm 0.00 in0.0 mm
01:05 AM 82.0°F27.8°C 45.7°F7.6°C 28% Calm Calm -- 30.85 in1044.7 mb 0.00 in0.0 mm 0.00 in0.0 mm 0.00 in0.0 mm
01:00 AM 82.2°F27.9°C 43.9°F6.6°C 26% Calm Calm -- 30.85 in1044.7 mb 0.00 in0.0 mm 0.00 in0.0 mm 0.00 in0.0 mm
12:55 AM 82.2°F27.9°C 43.9°F6.6°C 26% 3.1 mph SW5.0 kmh SW 3.6 mph5.8 kmh 30.85 in1044.7 mb 0.00 in0.0 mm 0.00 in0.0 mm 0.00 in0.0 mm
12:50 AM 82.2°F27.9°C 43.9°F6.6°C 26% 3.1 mph W5.0 kmh W 3.1 mph5.0 kmh 30.85 in1044.7 mb 0.00 in0.0 mm 0.00 in0.0 mm 0.00 in0.0 mm
12:45 AM 82.4°F28.0°C 44.1°F6.7°C 26% Calm Calm -- 30.85 in1044.7 mb 0.00 in0.0 mm 0.00 in0.0 mm 0.00 in0.0 mm
12:40 AM 82.4°F28.0°C 44.1°F6.7°C 26% Calm Calm 4.0 mph6.4 kmh 30.85 in1044.7 mb 0.00 in0.0 mm 0.00 in0.0 mm 0.00 in0.0 mm
12:35 AM 82.7°F28.2°C 44.4°F6.9°C 26% 3.6 mph W5.8 kmh W 3.6 mph5.8 kmh 30.85 in1044.7 mb 0.00 in0.0 mm 0.00 in0.0 mm 0.00 in0.0 mm
12:30 AM 82.6°F28.1°C 44.2°F6.8°C 26% 3.6 mph SW5.8 kmh SW 3.6 mph5.8 kmh 30.85 in1044.7 mb 0.00 in0.0 mm 0.00 in0.0 mm 0.00 in0.0 mm
12:25 AM 82.9°F28.3°C 40.2°F4.6°C 22% 4.5 mph SW7.2 kmh SW 5.8 mph9.3 kmh 30.85 in1044.7 mb 0.00 in0.0 mm 0.00 in0.0 mm 0.00 in0.0 mm
12:20 AM 83.5°F28.6°C 45.0°F7.2°C 26% 3.1 mph SW5.0 kmh SW 4.9 mph7.9 kmh 30.85 in1044.7 mb 0.00 in0.0 mm 0.00 in0.0 mm 0.00 in0.0 mm
12:15 AM 83.8°F28.8°C 41.0°F5.0°C 22% 2.7 mph SW4.3 kmh SW 5.8 mph9.3 kmh 30.85 in1044.7 mb 0.00 in0.0 mm 0.00 in0.0 mm 0.00 in0.0 mm
12:10 AM 83.8°F28.8°C 41.0°F5.0°C 22% Calm Calm 2.7 mph4.3 kmh 30.85 in1044.7 mb 0.00 in0.0 mm 0.00 in0.0 mm 0.00 in0.0 mm
12:05 AM 83.3°F28.5°C 40.5°F4.7°C 22% Calm Calm 2.2 mph3.5 kmh 30.85 in1044.7 mb 0.00 in0.0 mm 0.00 in0.0 mm 0.00 in0.0 mm
12:00 AM 83.5°F28.6°C 40.7°F4.8°C 22% 4.0 mph WNW6.4 kmh WNW 4.0 mph6.4 kmh 30.85 in1044.7 mb 0.00 in0.0 mm 0.00 in0.0 mm 0.00 in0.0 mm